createdAt,value
2023-05-02T00:00:53.420Z,80.97
2023-05-02T00:02:55.233Z,80.83
2023-05-02T00:04:56.735Z,80.00
2023-05-02T00:06:58.235Z,80.91
2023-05-02T00:08:59.794Z,79.84
2023-05-02T00:11:01.233Z,81.38
2023-05-02T00:13:02.716Z,80.63
2023-05-02T00:15:04.978Z,81.56
2023-05-02T00:17:06.445Z,80.55
2023-05-02T00:19:08.032Z,80.71
2023-05-02T00:21:09.991Z,80.28
2023-05-02T00:23:13.146Z,81.33
2023-05-02T00:25:16.436Z,81.54
2023-05-02T00:27:19.170Z,81.78
2023-05-02T00:29:20.888Z,82.12
2023-05-02T00:31:22.332Z,83.43
2023-05-02T00:33:23.777Z,82.23
2023-05-02T00:35:25.269Z,82.01
2023-05-02T00:37:28.504Z,82.64
2023-05-02T00:39:29.957Z,82.85
2023-05-02T00:41:31.359Z,81.91
2023-05-02T00:43:32.908Z,83.12
2023-05-02T00:45:34.467Z,82.60
2023-05-02T00:47:36.108Z,81.65
2023-05-02T00:49:37.634Z,82.72
2023-05-02T00:51:40.190Z,82.66
2023-05-02T00:53:41.755Z,82.39
2023-05-02T00:55:43.725Z,82.09
2023-05-02T00:57:45.155Z,83.08
2023-05-02T00:59:47.340Z,81.81
2023-05-02T01:02:06.014Z,82.61
2023-05-02T01:04:22.757Z,81.08
2023-05-02T01:06:42.318Z,81.52
2023-05-02T01:09:10.872Z,81.98
2023-05-02T01:11:17.357Z,82.44
2023-05-02T01:13:26.228Z,82.05
2023-05-02T01:15:28.361Z,83.08
2023-05-02T01:17:32.899Z,81.62
2023-05-02T01:19:37.757Z,82.36
2023-05-02T01:21:40.353Z,82.39
2023-05-02T01:23:53.468Z,83.71
2023-05-02T01:25:55.069Z,82.91
2023-05-02T01:28:14.223Z,82.85
2023-05-02T01:30:23.588Z,83.31
2023-05-02T01:32:27.948Z,82.08
2023-05-02T01:34:32.022Z,82.39
2023-05-02T01:36:36.163Z,82.08
2023-05-02T01:38:39.953Z,82.53
2023-05-02T01:40:45.481Z,82.06
2023-05-02T01:42:50.270Z,81.52
2023-05-02T01:44:55.051Z,82.29
2023-05-02T01:46:58.000Z,82.66
2023-05-02T01:49:02.605Z,81.95
2023-05-02T01:51:07.343Z,81.80
2023-05-02T01:53:11.379Z,81.38
2023-05-02T01:55:15.255Z,83.81
2023-05-02T01:57:18.344Z,82.90
2023-05-02T01:59:22.589Z,82.47
2023-05-02T02:01:27.507Z,82.99
2023-05-02T02:03:30.972Z,82.49
2023-05-02T02:05:34.872Z,83.46
2023-05-02T02:07:36.533Z,82.07
2023-05-02T02:09:38.018Z,82.95
2023-05-02T02:11:47.695Z,82.69
2023-05-02T02:13:52.926Z,83.73
2023-05-02T02:15:59.712Z,82.61
2023-05-02T02:18:02.020Z,83.35
2023-05-02T02:20:06.769Z,83.00
2023-05-02T02:22:08.905Z,83.55
2023-05-02T02:24:11.653Z,83.29
2023-05-02T02:26:14.340Z,83.26
2023-05-02T02:28:16.010Z,83.96
2023-05-02T02:30:17.678Z,83.81
2023-05-02T02:32:19.137Z,84.81
2023-05-02T02:34:21.282Z,83.35
2023-05-02T02:36:49.335Z,82.58
2023-05-02T02:39:00.784Z,83.62
2023-05-02T02:41:25.259Z,84.36
2023-05-02T02:43:32.345Z,84.20
2023-05-02T02:45:51.432Z,82.92
2023-05-02T02:48:19.712Z,83.90
2023-05-02T02:50:38.267Z,82.78
2023-05-02T02:52:55.562Z,83.22
2023-05-02T02:55:00.704Z,83.81
2023-05-02T02:57:09.152Z,84.15
2023-05-02T02:59:16.789Z,83.08
2023-05-02T03:01:21.839Z,83.27
2023-05-02T03:03:28.982Z,84.23
2023-05-02T03:05:32.848Z,85.21
2023-05-02T03:07:34.516Z,84.29
2023-05-02T03:09:45.879Z,83.52
2023-05-02T03:11:47.299Z,83.05
2023-05-02T03:13:48.861Z,83.92
2023-05-02T03:15:53.916Z,82.80
2023-05-02T03:17:55.492Z,83.92
2023-05-02T03:19:57.520Z,82.96
2023-05-02T03:21:59.074Z,84.81
2023-05-02T03:24:01.393Z,83.88
2023-05-02T03:26:02.953Z,83.72
2023-05-02T03:28:04.567Z,84.14
2023-05-02T03:30:06.714Z,83.63
2023-05-02T03:32:08.408Z,85.04
2023-05-02T03:34:09.908Z,83.42
2023-05-02T03:36:11.369Z,83.57
2023-05-02T03:38:13.507Z,83.73
2023-05-02T03:40:15.069Z,82.80
2023-05-02T03:42:16.491Z,83.55
2023-05-02T03:44:17.907Z,82.67
2023-05-02T03:46:19.407Z,83.28
2023-05-02T03:48:21.040Z,84.36
2023-05-02T03:50:22.995Z,83.83
2023-05-02T03:52:24.846Z,84.58
2023-05-02T03:54:26.417Z,84.59
2023-05-02T03:56:27.962Z,83.85
2023-05-02T03:58:29.340Z,84.71
2023-05-02T04:00:31.895Z,84.08
2023-05-02T04:02:33.357Z,84.00
2023-05-02T04:04:35.087Z,84.20
2023-05-02T04:06:36.654Z,84.28
2023-05-02T04:08:38.374Z,84.78
2023-05-02T04:10:39.779Z,84.02
2023-05-02T04:12:41.150Z,83.68
2023-05-02T04:14:42.613Z,84.72
2023-05-02T04:16:50.906Z,84.37
2023-05-02T04:18:52.389Z,84.17
2023-05-02T04:20:53.775Z,85.43
2023-05-02T04:22:55.226Z,84.66
2023-05-02T04:24:56.710Z,84.13
2023-05-02T04:26:58.122Z,84.30
2023-05-02T04:28:59.505Z,83.39
2023-05-02T04:31:01.072Z,84.07
2023-05-02T04:33:02.564Z,83.37
2023-05-02T04:35:04.542Z,83.66
2023-05-02T04:37:06.319Z,84.46
2023-05-02T04:39:07.898Z,84.90
2023-05-02T04:41:09.965Z,85.39
2023-05-02T04:43:11.451Z,84.66
2023-05-02T04:45:12.852Z,84.58
2023-05-02T04:47:14.234Z,84.64
2023-05-02T04:49:15.614Z,84.83
2023-05-02T04:51:17.322Z,83.76
2023-05-02T04:53:18.831Z,84.52
2023-05-02T04:55:20.377Z,85.76
2023-05-02T04:57:23.303Z,85.94
2023-05-02T04:59:24.937Z,86.16
2023-05-02T05:01:29.027Z,85.47
2023-05-02T05:03:30.841Z,87.00
2023-05-02T05:05:32.940Z,85.97
2023-05-02T05:07:34.403Z,86.68
2023-05-02T05:09:35.886Z,86.56
2023-05-02T05:11:38.573Z,86.90
2023-05-02T05:13:39.973Z,86.58
2023-05-02T05:15:41.582Z,87.20
2023-05-02T05:17:43.189Z,86.94
2023-05-02T05:19:44.597Z,88.56
2023-05-02T05:21:46.017Z,86.54
2023-05-02T05:23:47.650Z,87.45
2023-05-02T05:25:49.177Z,87.03
2023-05-02T05:27:52.133Z,88.01
2023-05-02T05:29:53.519Z,88.01
2023-05-02T05:31:54.985Z,87.29
2023-05-02T05:33:56.458Z,87.70
2023-05-02T05:36:03.954Z,88.24
2023-05-02T05:38:05.346Z,88.22
2023-05-02T05:40:08.544Z,87.31
2023-05-02T05:42:09.961Z,87.22
2023-05-02T05:44:11.473Z,87.13
2023-05-02T05:46:12.859Z,88.94
2023-05-02T05:48:14.299Z,88.66
2023-05-02T05:50:21.643Z,88.07
2023-05-02T05:52:23.225Z,89.25
2023-05-02T05:54:25.278Z,88.68
2023-05-02T05:56:26.997Z,87.86
2023-05-02T05:58:28.398Z,89.57
2023-05-02T06:00:30.102Z,89.50
2023-05-02T06:02:31.631Z,89.25
2023-05-02T06:04:33.099Z,90.53
2023-05-02T06:06:34.775Z,89.79
2023-05-02T06:08:36.336Z,87.79
2023-05-02T06:10:37.740Z,88.45
2023-05-02T06:12:39.209Z,87.46
2023-05-02T06:14:40.927Z,88.41
2023-05-02T06:16:42.732Z,86.63
2023-05-02T06:18:44.827Z,87.11
2023-05-02T06:20:46.204Z,86.36
2023-05-02T06:22:47.604Z,87.17
2023-05-02T06:24:48.974Z,86.58
2023-05-02T06:26:51.710Z,85.45
2023-05-02T06:28:54.967Z,86.50
2023-05-02T06:31:05.997Z,86.45
2023-05-02T06:33:07.574Z,85.76
2023-05-02T06:35:10.079Z,84.44
2023-05-02T06:37:11.745Z,84.86
2023-05-02T06:39:13.186Z,82.54
2023-05-02T06:41:17.876Z,84.04
2023-05-02T06:43:19.747Z,84.01
2023-05-02T06:45:21.131Z,85.19
2023-05-02T06:47:24.317Z,85.29
2023-05-02T06:49:26.704Z,85.53
2023-05-02T06:51:28.165Z,83.88
2023-05-02T06:53:31.131Z,83.34
2023-05-02T06:55:34.353Z,83.96
2023-05-02T06:57:35.831Z,83.84
2023-05-02T06:59:37.607Z,82.93
2023-05-02T07:01:39.036Z,82.02
2023-05-02T07:03:40.700Z,82.97
2023-05-02T07:05:42.238Z,80.52
2023-05-02T07:07:44.190Z,82.57
2023-05-02T07:09:45.631Z,80.90
2023-05-02T07:11:47.157Z,83.10
2023-05-02T07:13:48.628Z,81.66
2023-05-02T07:15:50.176Z,83.03
2023-05-02T07:17:51.597Z,82.01
2023-05-02T07:19:53.126Z,81.54
2023-05-02T07:21:54.499Z,81.33
2023-05-02T07:23:57.534Z,80.53
2023-05-02T07:25:58.936Z,80.36
2023-05-02T07:28:00.341Z,79.99
2023-05-02T07:30:02.346Z,80.38
2023-05-02T07:32:04.670Z,80.15
2023-05-02T07:34:06.264Z,80.85
2023-05-02T07:36:07.722Z,80.70
2023-05-02T07:38:09.157Z,79.53
2023-05-02T07:40:10.662Z,78.81
2023-05-02T07:42:12.046Z,80.08
2023-05-02T07:44:13.484Z,80.92
2023-05-02T07:46:15.124Z,81.75
2023-05-02T07:48:16.668Z,81.05
2023-05-02T07:50:18.186Z,80.88
2023-05-02T07:52:20.735Z,82.30
2023-05-02T07:54:22.424Z,80.04
2023-05-02T07:56:24.818Z,80.02
2023-05-02T07:58:26.343Z,80.97
2023-05-02T08:00:27.934Z,80.21
2023-05-02T08:02:29.810Z,80.68
2023-05-02T08:04:31.317Z,81.58
2023-05-02T08:06:33.256Z,80.30
2023-05-02T08:08:37.551Z,80.41
2023-05-02T08:10:38.976Z,83.91
2023-05-02T08:12:41.733Z,85.25
2023-05-02T08:14:43.190Z,85.67
2023-05-02T08:16:46.182Z,84.87
2023-05-02T08:18:48.239Z,84.62
2023-05-02T08:20:50.715Z,84.41
2023-05-02T08:22:52.151Z,84.81
2023-05-02T08:24:53.570Z,84.08
2023-05-02T08:26:54.980Z,84.65
2023-05-02T08:28:56.413Z,84.20
2023-05-02T08:30:57.865Z,82.62
2023-05-02T08:32:59.318Z,84.02
2023-05-02T08:35:00.873Z,83.95
2023-05-02T08:37:02.417Z,83.86
2023-05-02T08:39:04.891Z,83.71
2023-05-02T08:41:14.288Z,82.53
2023-05-02T08:43:16.907Z,81.58
2023-05-02T08:45:19.979Z,82.03
2023-05-02T08:47:22.350Z,81.71
2023-05-02T08:49:25.610Z,82.61
2023-05-02T08:51:29.004Z,81.59
2023-05-02T08:53:34.293Z,81.46
2023-05-02T08:55:39.944Z,82.21
2023-05-02T08:57:43.655Z,81.08
2023-05-02T08:59:45.221Z,81.93
2023-05-02T09:01:50.129Z,81.88
2023-05-02T09:03:52.333Z,80.53
2023-05-02T09:06:02.781Z,82.43
2023-05-02T09:08:04.310Z,81.57
2023-05-02T09:10:07.734Z,82.15
2023-05-02T09:12:09.145Z,82.48
2023-05-02T09:14:17.521Z,80.24
2023-05-02T09:16:25.330Z,80.44
2023-05-02T09:18:32.318Z,80.30
2023-05-02T09:20:40.039Z,80.53
2023-05-02T09:22:52.836Z,80.64
2023-05-02T09:24:55.474Z,81.23
2023-05-02T09:27:04.940Z,80.16
2023-05-02T09:29:06.635Z,79.75
2023-05-02T09:31:12.624Z,78.75
2023-05-02T09:33:26.883Z,80.05
2023-05-02T09:35:28.376Z,81.83
2023-05-02T09:37:35.830Z,81.10
2023-05-02T09:39:37.401Z,81.47
2023-05-02T09:41:42.876Z,82.10
2023-05-02T09:43:44.521Z,81.46
2023-05-02T09:46:03.586Z,81.49
2023-05-02T09:48:05.326Z,81.23
2023-05-02T09:50:09.188Z,80.86
2023-05-02T09:52:12.906Z,79.99
2023-05-02T09:54:15.271Z,80.23
2023-05-02T09:56:17.518Z,81.08
2023-05-02T09:58:23.660Z,80.95
2023-05-02T10:00:44.666Z,80.15
2023-05-02T10:02:50.275Z,78.24
2023-05-02T10:04:53.692Z,80.42
2023-05-02T10:06:55.592Z,79.24
2023-05-02T10:08:57.517Z,77.80
2023-05-02T10:11:00.011Z,77.68
2023-05-02T10:13:03.167Z,78.35
2023-05-02T10:15:05.874Z,79.20
2023-05-02T10:17:19.309Z,77.99
2023-05-02T10:19:27.086Z,78.50
2023-05-02T10:21:28.682Z,77.26
2023-05-02T10:23:30.420Z,78.50
2023-05-02T10:25:33.210Z,78.05
2023-05-02T10:27:34.666Z,77.73
2023-05-02T10:29:37.147Z,78.70
2023-05-02T10:31:41.927Z,79.18
2023-05-02T10:33:46.799Z,79.18
2023-05-02T10:35:48.449Z,78.31
2023-05-02T10:37:50.645Z,78.76
2023-05-02T10:39:52.224Z,77.43
2023-05-02T10:41:56.375Z,78.48
2023-05-02T10:43:58.712Z,76.11
2023-05-02T10:46:00.244Z,77.01
2023-05-02T10:48:27.510Z,78.08
2023-05-02T10:50:43.520Z,77.53
2023-05-02T10:52:45.132Z,76.89
2023-05-02T10:54:46.621Z,77.44
2023-05-02T10:57:03.477Z,75.37
2023-05-02T10:59:27.619Z,75.74
2023-05-02T11:01:29.293Z,75.26
2023-05-02T11:03:57.361Z,74.87
2023-05-02T11:06:09.551Z,74.83
2023-05-02T11:08:22.099Z,76.09
2023-05-02T11:10:26.362Z,74.41
2023-05-02T11:12:48.996Z,73.63
2023-05-02T11:14:50.699Z,73.89
2023-05-02T11:16:58.792Z,75.45
2023-05-02T11:19:01.411Z,75.39
2023-05-02T11:21:28.612Z,75.51
2023-05-02T11:23:30.374Z,75.29
2023-05-02T11:25:39.153Z,75.27
2023-05-02T11:27:43.355Z,74.39
2023-05-02T11:29:52.438Z,75.77
2023-05-02T11:31:54.804Z,75.99
2023-05-02T11:34:05.078Z,73.35
2023-05-02T11:36:06.637Z,74.11
2023-05-02T11:38:13.126Z,74.44
2023-05-02T11:40:15.240Z,74.93
2023-05-02T11:42:30.537Z,75.32
2023-05-02T11:44:31.976Z,75.36
2023-05-02T11:46:36.464Z,73.67
2023-05-02T11:48:38.350Z,73.55
2023-05-02T11:50:51.409Z,75.65
2023-05-02T11:52:52.893Z,71.86
2023-05-02T11:54:58.159Z,71.14
2023-05-02T11:57:01.828Z,70.98
2023-05-02T11:59:03.981Z,72.28
2023-05-02T12:01:16.071Z,71.90
2023-05-02T12:03:32.123Z,68.55
2023-05-02T12:05:33.985Z,71.54
2023-05-02T12:07:35.889Z,68.46
2023-05-02T12:09:50.444Z,68.16
2023-05-02T12:11:53.461Z,67.92
2023-05-02T12:13:54.933Z,66.18
2023-05-02T12:15:57.146Z,68.23
2023-05-02T12:17:59.157Z,67.38
2023-05-02T12:20:03.504Z,66.68
2023-05-02T12:22:05.815Z,66.10
2023-05-02T12:24:07.333Z,67.17
2023-05-02T12:26:25.105Z,65.25
2023-05-02T12:28:26.789Z,62.74
2023-05-02T12:30:29.533Z,66.16
2023-05-02T12:32:33.341Z,64.58
2023-05-02T12:34:36.564Z,63.47
2023-05-02T12:36:44.261Z,63.04
2023-05-02T12:38:53.750Z,63.01
2023-05-02T12:40:58.704Z,62.93
2023-05-02T12:43:03.861Z,64.60
2023-05-02T12:45:16.237Z,59.84
2023-05-02T12:47:19.472Z,60.30
2023-05-02T12:49:20.927Z,60.92
2023-05-02T12:51:26.867Z,60.66
2023-05-02T12:53:40.152Z,63.66
2023-05-02T12:55:41.616Z,62.29
2023-05-02T12:57:43.457Z,59.91
2023-05-02T12:59:44.910Z,60.22
2023-05-02T13:01:46.342Z,58.59
2023-05-02T13:03:50.987Z,57.65
2023-05-02T13:05:55.582Z,57.73
2023-05-02T13:07:58.471Z,56.08
2023-05-02T13:10:00.108Z,58.56
2023-05-02T13:12:03.462Z,57.75
2023-05-02T13:14:05.937Z,58.38
2023-05-02T13:16:08.117Z,57.33
2023-05-02T13:18:09.792Z,57.84
2023-05-02T13:20:12.096Z,60.41
2023-05-02T13:22:13.517Z,56.66
2023-05-02T13:24:17.340Z,58.03
2023-05-02T13:26:18.856Z,57.89
2023-05-02T13:28:20.378Z,57.15
2023-05-02T13:30:21.793Z,54.95
2023-05-02T13:32:23.227Z,56.35
2023-05-02T13:34:24.731Z,54.75
2023-05-02T13:36:26.277Z,54.13
2023-05-02T13:38:27.701Z,56.01
2023-05-02T13:40:29.234Z,56.18
2023-05-02T13:42:30.721Z,51.40
2023-05-02T13:44:32.516Z,52.75
2023-05-02T13:46:36.631Z,52.49
2023-05-02T13:48:38.483Z,52.91
2023-05-02T13:50:39.892Z,49.91
2023-05-02T13:52:41.579Z,51.84
2023-05-02T13:54:43.027Z,50.92
2023-05-02T13:56:44.454Z,48.42
2023-05-02T13:58:45.824Z,51.72
2023-05-02T14:00:47.331Z,49.51
2023-05-02T14:02:48.822Z,47.32
2023-05-02T14:04:50.443Z,48.40
2023-05-02T14:06:51.906Z,51.26
2023-05-02T14:08:53.380Z,48.32
2023-05-02T14:10:54.804Z,48.40
2023-05-02T14:12:56.262Z,50.74
2023-05-02T14:14:57.702Z,48.24
2023-05-02T14:16:59.797Z,48.24
2023-05-02T14:19:01.201Z,47.10
2023-05-02T14:21:04.014Z,47.96
2023-05-02T14:23:07.440Z,48.42
2023-05-02T14:25:09.288Z,48.03
2023-05-02T14:27:18.089Z,46.49
2023-05-02T14:29:22.777Z,44.51
2023-05-02T14:31:24.418Z,45.30
2023-05-02T14:33:26.721Z,44.26
2023-05-02T14:35:28.244Z,42.88
2023-05-02T14:37:29.736Z,43.52
2023-05-02T14:39:31.153Z,44.34
2023-05-02T14:41:32.582Z,44.30
2023-05-02T14:43:33.976Z,45.34
2023-05-02T14:45:35.463Z,45.04
2023-05-02T14:47:36.910Z,44.41
2023-05-02T14:49:38.347Z,46.00
2023-05-02T14:51:40.186Z,46.15
2023-05-02T14:53:41.619Z,37.16
2023-05-02T14:55:43.245Z,32.70
2023-05-02T14:57:44.680Z,28.16
2023-05-02T14:59:46.138Z,27.14
2023-05-02T15:01:47.657Z,29.20
2023-05-02T15:04:05.279Z,31.63
2023-05-02T15:06:08.876Z,28.13
2023-05-02T15:08:10.504Z,26.61
2023-05-02T15:10:11.928Z,29.17
2023-05-02T15:12:13.341Z,27.73
2023-05-02T15:14:14.745Z,33.69
2023-05-02T15:16:16.445Z,36.33
2023-05-02T15:18:17.920Z,29.38
2023-05-02T15:20:19.704Z,34.51
2023-05-02T15:22:22.245Z,36.27
2023-05-02T15:24:26.961Z,39.34
2023-05-02T15:26:28.726Z,38.49
2023-05-02T15:28:31.006Z,39.93
2023-05-02T15:30:32.452Z,39.62
2023-05-02T15:32:34.026Z,32.41
2023-05-02T15:34:35.494Z,29.18
2023-05-02T15:36:37.462Z,28.95
2023-05-02T15:38:42.812Z,31.68
2023-05-02T15:40:44.231Z,30.85
2023-05-02T15:42:45.849Z,25.50
2023-05-02T15:44:47.229Z,25.32
2023-05-02T15:46:49.365Z,22.63
2023-05-02T15:48:51.092Z,21.83
2023-05-02T15:50:52.656Z,23.45
2023-05-02T15:52:54.032Z,28.33
2023-05-02T15:54:56.061Z,24.80
2023-05-02T15:56:57.527Z,28.40
2023-05-02T15:58:58.943Z,27.29
2023-05-02T16:01:00.347Z,24.04
2023-05-02T16:03:03.805Z,26.41
2023-05-02T16:05:06.011Z,30.09
2023-05-02T16:07:07.492Z,23.51
2023-05-02T16:09:10.041Z,21.35
2023-05-02T16:11:11.486Z,20.02
2023-05-02T16:13:12.973Z,19.50
2023-05-02T16:15:14.474Z,20.75
2023-05-02T16:17:16.082Z,19.61
2023-05-02T16:19:17.642Z,20.78
2023-05-02T16:21:19.082Z,20.03
2023-05-02T16:23:21.500Z,19.39
2023-05-02T16:25:22.962Z,21.61
2023-05-02T16:27:24.842Z,20.24
2023-05-02T16:29:26.297Z,20.19
2023-05-02T16:31:28.126Z,18.06
2023-05-02T16:33:29.815Z,18.59
2023-05-02T16:35:31.214Z,18.32
2023-05-02T16:37:34.789Z,19.75
2023-05-02T16:39:36.222Z,20.77
2023-05-02T16:41:37.652Z,19.37
2023-05-02T16:43:39.294Z,19.95
2023-05-02T16:45:40.809Z,19.49
2023-05-02T16:47:43.027Z,17.73
2023-05-02T16:49:45.720Z,21.71
2023-05-02T16:51:51.262Z,24.82
2023-05-02T16:53:52.658Z,25.59
2023-05-02T16:55:54.639Z,28.88
2023-05-02T16:57:56.418Z,28.55
2023-05-02T16:59:58.062Z,27.91
2023-05-02T17:01:59.485Z,25.11
2023-05-02T17:04:01.038Z,22.89
2023-05-02T17:06:02.827Z,22.75
2023-05-02T17:08:04.416Z,24.10
2023-05-02T17:10:07.397Z,25.47
2023-05-02T17:12:12.499Z,28.53
2023-05-02T17:14:14.250Z,28.91
2023-05-02T17:16:17.912Z,29.69
2023-05-02T17:18:19.480Z,33.25
2023-05-02T17:20:21.516Z,33.41
2023-05-02T17:22:23.312Z,33.96
2023-05-02T17:24:25.055Z,35.85
2023-05-02T17:26:26.493Z,35.68
2023-05-02T17:28:28.963Z,35.94
2023-05-02T17:30:30.529Z,38.25
2023-05-02T17:32:33.647Z,38.54
2023-05-02T17:34:36.591Z,38.58
2023-05-02T17:36:41.744Z,39.82
2023-05-02T17:38:43.812Z,40.03
2023-05-02T17:40:45.484Z,40.40
2023-05-02T17:42:47.224Z,42.49
2023-05-02T17:44:48.697Z,40.82
2023-05-02T17:46:50.126Z,41.03
2023-05-02T17:48:51.956Z,41.77
2023-05-02T17:50:55.387Z,42.83
2023-05-02T17:52:57.489Z,43.47
2023-05-02T17:54:59.018Z,44.70
2023-05-02T17:57:00.421Z,44.38
2023-05-02T17:59:01.780Z,44.51
2023-05-02T18:01:08.029Z,43.04
2023-05-02T18:03:09.624Z,45.53
2023-05-02T18:05:11.037Z,44.69
2023-05-02T18:07:12.411Z,44.96
2023-05-02T18:09:13.790Z,44.39
2023-05-02T18:11:19.739Z,45.87
2023-05-02T18:13:21.176Z,47.04
2023-05-02T18:15:22.753Z,46.96
2023-05-02T18:17:24.506Z,47.24
2023-05-02T18:19:25.987Z,47.87
2023-05-02T18:21:28.155Z,48.57
2023-05-02T18:23:29.623Z,49.02
2023-05-02T18:25:33.954Z,48.97
2023-05-02T18:27:35.407Z,48.40
2023-05-02T18:29:36.948Z,48.69
2023-05-02T18:31:40.287Z,50.17
2023-05-02T18:33:42.064Z,50.14
2023-05-02T18:35:48.215Z,50.44
2023-05-02T18:37:49.607Z,52.39
2023-05-02T18:39:51.286Z,49.49
2023-05-02T18:41:52.643Z,51.06
2023-05-02T18:43:54.563Z,51.94
2023-05-02T18:45:55.980Z,52.53
2023-05-02T18:47:57.821Z,53.74
2023-05-02T18:49:59.823Z,53.45
2023-05-02T18:52:01.327Z,53.60
2023-05-02T18:54:02.742Z,54.85
2023-05-02T18:56:11.829Z,54.44
2023-05-02T18:58:13.191Z,55.61
2023-05-02T19:00:15.206Z,55.08
2023-05-02T19:02:16.663Z,57.79
2023-05-02T19:04:18.477Z,57.92
2023-05-02T19:06:20.284Z,58.45
2023-05-02T19:08:22.617Z,59.04
2023-05-02T19:10:25.026Z,58.09
2023-05-02T19:12:26.565Z,59.15
2023-05-02T19:14:28.021Z,60.23
2023-05-02T19:16:29.628Z,59.76
2023-05-02T19:18:31.251Z,60.15
2023-05-02T19:20:32.674Z,60.87
2023-05-02T19:22:34.658Z,60.61
2023-05-02T19:24:36.226Z,61.48
2023-05-02T19:26:37.644Z,61.26
2023-05-02T19:28:39.405Z,61.35
2023-05-02T19:30:42.443Z,61.39
2023-05-02T19:32:43.886Z,61.63
2023-05-02T19:34:45.393Z,61.51
2023-05-02T19:36:46.909Z,62.09
2023-05-02T19:38:53.932Z,62.33
2023-05-02T19:40:55.671Z,61.51
2023-05-02T19:42:57.086Z,61.88
2023-05-02T19:44:58.474Z,61.97
2023-05-02T19:46:59.960Z,62.81
2023-05-02T19:49:01.337Z,61.89
2023-05-02T19:51:04.187Z,62.39
2023-05-02T19:53:05.698Z,63.15
2023-05-02T19:55:10.348Z,62.21
2023-05-02T19:57:11.779Z,63.39
2023-05-02T19:59:13.154Z,63.63
2023-05-02T20:01:14.851Z,63.34
2023-05-02T20:03:16.712Z,64.41
2023-05-02T20:05:18.352Z,64.54
2023-05-02T20:07:19.857Z,64.40
2023-05-02T20:09:21.294Z,64.16
2023-05-02T20:11:22.769Z,64.34
2023-05-02T20:13:24.288Z,64.79
2023-05-02T20:15:25.740Z,65.43
2023-05-02T20:17:27.195Z,65.30
2023-05-02T20:19:29.334Z,66.47
2023-05-02T20:21:31.350Z,65.95
2023-05-02T20:23:32.764Z,65.38
2023-05-02T20:25:34.187Z,65.70
2023-05-02T20:27:35.660Z,64.97
2023-05-02T20:29:37.099Z,66.01
2023-05-02T20:31:39.996Z,66.13
2023-05-02T20:33:45.850Z,65.44
2023-05-02T20:35:54.908Z,66.03
2023-05-02T20:37:56.451Z,65.74
2023-05-02T20:39:58.061Z,66.44
2023-05-02T20:41:59.501Z,65.87
2023-05-02T20:44:02.637Z,65.29
2023-05-02T20:46:11.874Z,66.46
2023-05-02T20:48:19.196Z,65.89
2023-05-02T20:50:20.705Z,66.66
2023-05-02T20:52:22.974Z,66.47
2023-05-02T20:54:24.442Z,66.84
2023-05-02T20:56:26.185Z,67.63
2023-05-02T20:58:27.619Z,66.15
2023-05-02T21:00:29.055Z,66.96
2023-05-02T21:02:30.660Z,68.00
2023-05-02T21:04:32.178Z,67.76
2023-05-02T21:06:33.761Z,67.72
2023-05-02T21:08:35.493Z,67.92
2023-05-02T21:10:36.923Z,66.97
2023-05-02T21:12:38.619Z,67.82
2023-05-02T21:14:40.334Z,68.24
2023-05-02T21:16:41.730Z,69.43
2023-05-02T21:18:43.396Z,68.40
2023-05-02T21:20:48.095Z,69.10
2023-05-02T21:22:49.762Z,68.59
2023-05-02T21:24:51.263Z,69.17
2023-05-02T21:26:52.750Z,69.06
2023-05-02T21:28:54.156Z,68.62
2023-05-02T21:30:55.934Z,69.07
2023-05-02T21:32:57.404Z,68.89
2023-05-02T21:34:58.936Z,69.24
2023-05-02T21:37:00.950Z,68.96
2023-05-02T21:39:02.469Z,68.68
2023-05-02T21:41:05.200Z,68.89
2023-05-02T21:43:06.668Z,69.80
2023-05-02T21:45:08.655Z,69.88
2023-05-02T21:47:10.184Z,70.73
2023-05-02T21:49:11.701Z,70.80
2023-05-02T21:51:14.125Z,70.97
2023-05-02T21:53:15.785Z,71.72
2023-05-02T21:55:17.317Z,71.29
2023-05-02T21:57:21.399Z,72.11
2023-05-02T21:59:22.784Z,71.15
2023-05-02T22:01:24.451Z,71.74
2023-05-02T22:03:27.201Z,71.65
2023-05-02T22:05:28.630Z,72.42
2023-05-02T22:07:30.317Z,72.11
2023-05-02T22:09:33.533Z,72.37
2023-05-02T22:11:35.210Z,72.38
2023-05-02T22:13:36.924Z,71.82
2023-05-02T22:15:42.825Z,71.79
2023-05-02T22:17:46.140Z,72.05
2023-05-02T22:19:53.854Z,72.01
2023-05-02T22:21:56.899Z,72.74
2023-05-02T22:23:58.997Z,72.14
2023-05-02T22:26:00.459Z,72.75
2023-05-02T22:28:06.856Z,72.39
2023-05-02T22:30:09.889Z,73.19
2023-05-02T22:32:11.559Z,72.63
2023-05-02T22:34:13.053Z,72.43
2023-05-02T22:36:14.430Z,73.23
2023-05-02T22:38:19.253Z,73.23
2023-05-02T22:40:21.187Z,74.57
2023-05-02T22:42:23.582Z,73.81
2023-05-02T22:44:25.029Z,73.75
2023-05-02T22:46:26.765Z,74.52
2023-05-02T22:48:29.153Z,74.04
2023-05-02T22:50:30.606Z,73.46
2023-05-02T22:52:37.674Z,74.33
2023-05-02T22:54:39.172Z,74.45
2023-05-02T22:56:43.733Z,75.31
2023-05-02T22:58:45.172Z,74.55
2023-05-02T23:00:46.614Z,73.96
2023-05-02T23:02:48.133Z,74.07
2023-05-02T23:04:50.782Z,73.74
2023-05-02T23:06:52.373Z,74.85
2023-05-02T23:08:53.980Z,73.73
2023-05-02T23:10:55.924Z,74.17
2023-05-02T23:12:57.285Z,74.68
2023-05-02T23:14:58.689Z,73.70
2023-05-02T23:17:02.074Z,73.86
2023-05-02T23:19:03.486Z,73.97
2023-05-02T23:21:05.222Z,74.50
2023-05-02T23:23:06.610Z,74.17
2023-05-02T23:25:09.224Z,75.47
2023-05-02T23:27:10.764Z,75.22
2023-05-02T23:29:12.359Z,74.91
2023-05-02T23:31:13.914Z,74.45
2023-05-02T23:33:16.333Z,74.97
2023-05-02T23:35:18.011Z,74.58
2023-05-02T23:37:19.670Z,74.20
2023-05-02T23:39:21.316Z,74.70
2023-05-02T23:41:22.892Z,74.73
2023-05-02T23:43:24.444Z,74.00
2023-05-02T23:45:25.857Z,73.87
2023-05-02T23:47:27.413Z,74.23
2023-05-02T23:49:28.865Z,73.92
2023-05-02T23:51:31.848Z,73.77
2023-05-02T23:53:33.261Z,73.98
2023-05-02T23:55:36.230Z,73.40
2023-05-02T23:57:37.682Z,75.08
2023-05-02T23:59:39.095Z,75.85
